Nearby METAR Reports

 

KDWH - Houston/Dw Hooks, Texas, USA
Distance from station: WNW 3mi, 6km
Updated: 06/29/2022 3:53pm
Partly cloudy
Partly cloudy
 Wind from varies
Wind: varies 6 mph , 9 km/h
Temperature: 97°F , 36°C
Dew Point: 64°F , 18°C
Humidity: 34%
Barometer: 30.03 inHg , 1016.9 hPa
Clouds: Partly cloudy
Visibility: 10 miles , 16 km
Cloud details: Partly cloudy 7500 ft
2022/06/29 20:53 KDWH 292053Z VRB05KT 10SM SCT075 36/18 A3003 RMK AO2 LTG DSNT S SLP165 T03610178 58022
KIAH - Houston/Intnl, Texas, USA
Distance from station: ESE 9mi, 14km
Updated: 06/29/2022 3:53pm
Mostly cloudy
Mostly cloudy
 Wind from NNE
Wind: NNE 13 mph , 20 km/h
Temperature: 97°F , 36°C
Dew Point: 64°F , 18°C
Humidity: 34%
Barometer: 30.02 inHg , 1016.6 hPa
Clouds: Mostly cloudy
Visibility: 10 miles , 16 km
Cloud details: Mostly cloudy 6000 ft
Mostly cloudy 25000 ft
2022/06/29 20:53 KIAH 292053Z 03011KT 10SM BKN060 BKN250 36/18 A3002 RMK AO2 LTG DSNT S SLP164 CB DSNT S-SW MOVG SW T03610178 58023
 
KCXO - Conroe, Texas, USA
Distance from station: NNE 21mi, 34km
Updated: 06/29/2022 3:53pm
Clear
Clear
 
Temperature: 97°F , 36°C
Dew Point: 64°F , 18°C
Humidity: 34%
Barometer: 30.04 inHg , 1017.3 hPa
Clouds: Clear
Visibility: 10 miles , 16 km
2022/06/29 20:53 KCXO 292053Z 10SM CLR 36/18 A3004 RMK AO2 SLP168 T03560183 58020
KMCJ - Houston/Univ, Texas, USA
Distance from station: SSE 24mi, 39km
Updated: 06/29/2022 4:55pm
Clear
Clear
 Wind from S
Wind: S 9 mph , 15 km/h
Temperature: 88°F , 31°C
Heat Index: 93°F , 34°C
Dew Point: 70°F , 21°C
Humidity: 55%
Barometer: 30.02 inHg , 1016.6 hPa
Clouds: Clear
Visibility: 9 miles , 14 km
2022/06/29 21:55 KMCJ 292155Z AUTO 17008KT 9SM CLR 31/21 A3002 RMK A01 LTG DSNT NE P0007
 
KTME - Houston Exec, Texas, USA
Distance from station: SW 30mi, 48km
Updated: 06/29/2022 4:35pm
Haze, Few clouds
Haze, Few clouds
 Wind from ENE
Wind: ENE 8 mph , 13 km/h
Temperature: 95°F , 35°C
Dew Point: 64°F , 18°C
Humidity: 36%
Barometer: 30.03 inHg , 1016.9 hPa
Summary: Haze
Clouds: Few Clouds
Visibility: 6 miles , 10 km
Cloud details: Few Clouds 7000 ft
2022/06/29 21:35 KTME 292135Z AUTO 06007KT 030V100 6SM HZ FEW070 35/18 A3003 RMK AO2
KHOU - Houston/Hobby, Texas, USA
Distance from station: SSE 32mi, 51km
Updated: 06/29/2022 3:53pm
Mostly cloudy
Mostly cloudy
 Wind from ESE
Wind: ESE 14 mph , 22 km/h, Gust: 18 mph , 30 km/h
Temperature: 91°F , 33°C
Heat Index: 96°F , 36°C
Dew Point: 70°F , 21°C
Humidity: 49%
Barometer: 30.03 inHg , 1016.9 hPa
Clouds: Mostly cloudy
Visibility: 10 miles , 16 km
Cloud details: Partly cloudy 5000 ft
Mostly cloudy 15000 ft
Mostly cloudy 25000 ft
2022/06/29 20:53 KHOU 292053Z 12012G16KT 10SM SCT050 BKN150 BKN250 33/21 A3003 RMK AO2 LTG DSNT SW AND W SLP171 CB DSNT W MOV SW TCU DSNT NE T03330206 56020
 
KSGR - Houston/Sugar La, Texas, USA
Distance from station: SSW 32mi, 51km
Updated: 06/29/2022 4:03pm
Mostly cloudy
Mostly cloudy
 Wind from E
Wind: E 16 mph , 26 km/h
Temperature: 90°F , 32°C
Heat Index: 96°F , 36°C
Dew Point: 70°F , 21°C
Humidity: 52%
Barometer: 30.03 inHg , 1016.9 hPa
Clouds: Mostly cloudy
Visibility: 10 miles , 16 km
Cloud details: Mostly cloudy 7000 ft
Mostly cloudy 8500 ft
Mostly cloudy 12000 ft
2022/06/29 21:03 KSGR 292103Z 10014KT 10SM BKN070 BKN085 BKN120 32/21 A3003 RMK AO2 LTG DSNT S AND SW T03220211
K6R3 - Cleveland Muni, Texas, USA
Distance from station: NE 36mi, 58km
Updated: 06/29/2022 4:35pm
Partly cloudy
Partly cloudy
 Wind from calm
Wind: Calm
Temperature: 97°F , 36°C
Dew Point: 57°F , 14°C
Humidity: 27%
Barometer: 30.03 inHg , 1016.9 hPa
Clouds: Partly cloudy
Visibility: 7 miles , 11 km
Cloud details: Partly cloudy 6500 ft
2022/06/29 21:35 K6R3 292135Z AUTO 00000KT 7SM SCT065 36/14 A3003 RMK AO2 LTG DSNT SE T03630137
 
KAXH - Houston/Southwst, Texas, USA
Distance from station: S 37mi, 60km
Updated: 06/29/2022 4:35pm
Mostly cloudy
Mostly cloudy
 Wind from calm
Wind: Calm
Temperature: 91°F , 33°C
Heat Index: 96°F , 36°C
Dew Point: 70°F , 21°C
Humidity: 49%
Barometer: 30.04 inHg , 1017.3 hPa
Clouds: Mostly cloudy
Visibility: 10 miles , 16 km
Cloud details: Mostly cloudy 5500 ft
Mostly cloudy 7000 ft
Mostly cloudy 8000 ft
2022/06/29 21:35 KAXH 292135Z AUTO 00000KT 10SM BKN055 BKN070 BKN080 33/21 A3004 RMK AO2 LTG DSNT E T03250210
KEFD - Houston/Ellingto, Texas, USA
Distance from station: SSE 37mi, 60km
Updated: 06/29/2022 3:54pm
Partly cloudy
Partly cloudy
 Wind from ESE
Wind: ESE 12 mph , 19 km/h, Gust: 20 mph , 31 km/h
Temperature: 93°F , 34°C
Heat Index: 100°F , 38°C
Dew Point: 72°F , 22°C
Humidity: 49%
Barometer: 30.03 inHg , 1016.9 hPa
Clouds: Partly cloudy
Visibility: 10 miles , 16 km
Cloud details: Partly cloudy 5500 ft
2022/06/29 20:54 KEFD 292054Z 11010G17KT 10SM SCT055 34/22 A3003
 
KLVJ - Houston, Texas, USA
Distance from station: SSE 40mi, 64km
Updated: 06/29/2022 3:53pm
Few Clouds
Few Clouds
 Wind from ESE
Wind: ESE 13 mph , 20 km/h
Temperature: 93°F , 34°C
Heat Index: 99°F , 37°C
Dew Point: 70°F , 21°C
Humidity: 47%
Barometer: 30.05 inHg , 1017.6 hPa
Clouds: Few Clouds
Visibility: 10 miles , 16 km
Cloud details: Few Clouds 4800 ft
2022/06/29 20:53 KLVJ 292053Z AUTO 11011KT 10SM FEW048 34/21 A3005 RMK AO2 LTG DSNT W AND NW SLP174 T03390211 58020
KUTS - Huntsville, Texas, USA
Distance from station: N 48mi, 78km
Updated: 06/29/2022 3:53pm
Few Clouds
Few Clouds
 Wind from varies
Wind: varies 6 mph , 9 km/h
Temperature: 100°F , 38°C
Dew Point: 59°F , 15°C
Humidity: 25%
Barometer: 30.04 inHg , 1017.3 hPa
Clouds: Few Clouds
Visibility: 10 miles , 16 km
Cloud details: Few Clouds 8500 ft
2022/06/29 20:53 KUTS 292053Z AUTO VRB05KT 10SM FEW085 38/15 A3004 RMK AO2 SLP168 T03780150 58020